sensor_id;sensor_type;location;lat;lon;timestamp;temperature;humidity
12152;DHT22;6139;51.274;7.128;2022-07-12T00:00:08;15.90;99.90
12152;DHT22;6139;51.274;7.128;2022-07-12T00:01:09;15.90;99.90
12152;DHT22;6139;51.274;7.128;2022-07-12T00:02:11;15.80;99.90
12152;DHT22;6139;51.274;7.128;2022-07-12T00:03:12;15.80;99.90
12152;DHT22;6139;51.274;7.128;2022-07-12T00:04:14;15.80;99.90
12152;DHT22;6139;51.274;7.128;2022-07-12T00:05:15;15.80;99.90
12152;DHT22;6139;51.274;7.128;2022-07-12T00:06:17;15.80;99.90
12152;DHT22;6139;51.274;7.128;2022-07-12T00:07:18;15.80;99.90
12152;DHT22;6139;51.274;7.128;2022-07-12T00:08:22;15.80;99.90
12152;DHT22;6139;51.274;7.128;2022-07-12T00:09:23;15.80;99.90
12152;DHT22;6139;51.274;7.128;2022-07-12T00:10:25;15.90;99.90
12152;DHT22;6139;51.274;7.128;2022-07-12T00:11:26;15.90;99.90
12152;DHT22;6139;51.274;7.128;2022-07-12T00:12:28;15.90;99.90
12152;DHT22;6139;51.274;7.128;2022-07-12T00:13:30;15.90;99.90
12152;DHT22;6139;51.274;7.128;2022-07-12T00:14:32;15.90;99.90
12152;DHT22;6139;51.274;7.128;2022-07-12T00:15:33;15.90;99.90
12152;DHT22;6139;51.274;7.128;2022-07-12T00:16:34;15.90;99.90
12152;DHT22;6139;51.274;7.128;2022-07-12T00:17:35;15.90;99.90
12152;DHT22;6139;51.274;7.128;2022-07-12T00:18:38;15.90;99.90
12152;DHT22;6139;51.274;7.128;2022-07-12T00:19:39;15.90;99.90
12152;DHT22;6139;51.274;7.128;2022-07-12T00:20:41;15.80;99.90
12152;DHT22;6139;51.274;7.128;2022-07-12T00:21:42;15.80;99.90
12152;DHT22;6139;51.274;7.128;2022-07-12T00:22:44;15.80;99.90
12152;DHT22;6139;51.274;7.128;2022-07-12T00:23:48;15.70;99.90
12152;DHT22;6139;51.274;7.128;2022-07-12T00:24:50;15.60;99.90
12152;DHT22;6139;51.274;7.128;2022-07-12T00:25:51;15.60;99.90
12152;DHT22;6139;51.274;7.128;2022-07-12T00:26:53;15.60;99.90
12152;DHT22;6139;51.274;7.128;2022-07-12T00:27:54;15.60;99.90
12152;DHT22;6139;51.274;7.128;2022-07-12T00:28:56;15.60;99.90
12152;DHT22;6139;51.274;7.128;2022-07-12T00:29:58;15.60;99.90
12152;DHT22;6139;51.274;7.128;2022-07-12T00:31:00;15.60;99.90
12152;DHT22;6139;51.274;7.128;2022-07-12T00:32:01;15.60;99.90
12152;DHT22;6139;51.274;7.128;2022-07-12T00:33:03;15.60;99.90
12152;DHT22;6139;51.274;7.128;2022-07-12T00:34:04;15.60;99.90
12152;DHT22;6139;51.274;7.128;2022-07-12T00:35:06;15.60;99.90
12152;DHT22;6139;51.274;7.128;2022-07-12T00:36:08;15.60;99.90
12152;DHT22;6139;51.274;7.128;2022-07-12T00:37:10;15.50;99.90
12152;DHT22;6139;51.274;7.128;2022-07-12T00:38:11;15.50;99.90
12152;DHT22;6139;51.274;7.128;2022-07-12T00:39:14;15.40;99.90
12152;DHT22;6139;51.274;7.128;2022-07-12T00:40:15;15.50;99.90
12152;DHT22;6139;51.274;7.128;2022-07-12T00:41:17;15.50;99.90
12152;DHT22;6139;51.274;7.128;2022-07-12T00:42:18;15.50;99.90
12152;DHT22;6139;51.274;7.128;2022-07-12T00:43:20;15.50;99.90
12152;DHT22;6139;51.274;7.128;2022-07-12T00:44:21;15.50;99.90
12152;DHT22;6139;51.274;7.128;2022-07-12T00:45:23;15.50;99.90
12152;DHT22;6139;51.274;7.128;2022-07-12T00:46:24;15.50;99.90
12152;DHT22;6139;51.274;7.128;2022-07-12T00:47:32;15.50;99.90
12152;DHT22;6139;51.274;7.128;2022-07-12T00:48:37;15.40;99.90
12152;DHT22;6139;51.274;7.128;2022-07-12T00:49:39;15.40;99.90
12152;DHT22;6139;51.274;7.128;2022-07-12T00:50:40;15.40;99.90
12152;DHT22;6139;51.274;7.128;2022-07-12T00:51:43;15.40;99.90
12152;DHT22;6139;51.274;7.128;2022-07-12T00:52:45;15.30;99.90
12152;DHT22;6139;51.274;7.128;2022-07-12T00:53:50;15.30;99.90
12152;DHT22;6139;51.274;7.128;2022-07-12T00:54:53;15.30;99.90
12152;DHT22;6139;51.274;7.128;2022-07-12T00:55:56;15.30;99.90
12152;DHT22;6139;51.274;7.128;2022-07-12T00:56:58;15.30;99.90
12152;DHT22;6139;51.274;7.128;2022-07-12T00:58:00;15.30;99.90
12152;DHT22;6139;51.274;7.128;2022-07-12T00:59:01;15.30;99.90
12152;DHT22;6139;51.274;7.128;2022-07-12T01:00:04;15.20;99.90
12152;DHT22;6139;51.274;7.128;2022-07-12T01:01:06;15.20;99.90
12152;DHT22;6139;51.274;7.128;2022-07-12T01:02:09;15.20;99.90
12152;DHT22;6139;51.274;7.128;2022-07-12T01:03:10;15.20;99.90
12152;DHT22;6139;51.274;7.128;2022-07-12T01:04:12;15.20;99.90
12152;DHT22;6139;51.274;7.128;2022-07-12T01:05:13;15.10;99.90
12152;DHT22;6139;51.274;7.128;2022-07-12T01:06:16;15.10;99.90
12152;DHT22;6139;51.274;7.128;2022-07-12T01:07:18;15.10;99.90
12152;DHT22;6139;51.274;7.128;2022-07-12T01:08:20;15.10;99.90
12152;DHT22;6139;51.274;7.128;2022-07-12T01:09:21;15.20;99.90
12152;DHT22;6139;51.274;7.128;2022-07-12T01:10:25;15.20;99.90
12152;DHT22;6139;51.274;7.128;2022-07-12T01:11:26;15.20;99.90
12152;DHT22;6139;51.274;7.128;2022-07-12T01:12:28;15.20;99.90
12152;DHT22;6139;51.274;7.128;2022-07-12T01:13:30;15.20;99.90
12152;DHT22;6139;51.274;7.128;2022-07-12T01:14:34;15.20;99.90
12152;DHT22;6139;51.274;7.128;2022-07-12T01:15:35;15.20;99.90
12152;DHT22;6139;51.274;7.128;2022-07-12T01:16:37;15.20;99.90
12152;DHT22;6139;51.274;7.128;2022-07-12T01:17:39;15.20;99.90
12152;DHT22;6139;51.274;7.128;2022-07-12T01:18:42;15.10;99.90
12152;DHT22;6139;51.274;7.128;2022-07-12T01:19:45;15.10;99.90
12152;DHT22;6139;51.274;7.128;2022-07-12T01:20:47;15.00;99.90
12152;DHT22;6139;51.274;7.128;2022-07-12T01:21:48;15.10;99.90
12152;DHT22;6139;51.274;7.128;2022-07-12T01:22:53;15.10;99.90
12152;DHT22;6139;51.274;7.128;2022-07-12T01:23:54;15.10;99.90
12152;DHT22;6139;51.274;7.128;2022-07-12T01:24:57;15.10;99.90
12152;DHT22;6139;51.274;7.128;2022-07-12T01:25:59;15.20;99.90
12152;DHT22;6139;51.274;7.128;2022-07-12T01:27:02;15.10;99.90
12152;DHT22;6139;51.274;7.128;2022-07-12T01:28:04;15.20;99.90
12152;DHT22;6139;51.274;7.128;2022-07-12T01:29:06;15.20;99.90
12152;DHT22;6139;51.274;7.128;2022-07-12T01:30:08;15.10;99.90
12152;DHT22;6139;51.274;7.128;2022-07-12T01:31:10;15.10;99.90
12152;DHT22;6139;51.274;7.128;2022-07-12T01:32:11;15.10;99.90
12152;DHT22;6139;51.274;7.128;2022-07-12T01:33:30;15.10;99.90
12152;DHT22;6139;51.274;7.128;2022-07-12T01:34:31;15.10;99.90
12152;DHT22;6139;51.274;7.128;2022-07-12T01:35:33;15.10;99.90
12152;DHT22;6139;51.274;7.128;2022-07-12T01:36:37;15.10;99.90
12152;DHT22;6139;51.274;7.128;2022-07-12T01:37:41;15.10;99.90
12152;DHT22;6139;51.274;7.128;2022-07-12T01:38:44;15.10;99.90
12152;DHT22;6139;51.274;7.128;2022-07-12T01:39:48;15.20;99.90
12152;DHT22;6139;51.274;7.128;2022-07-12T01:40:49;15.20;99.90
12152;DHT22;6139;51.274;7.128;2022-07-12T01:41:51;15.20;99.90
12152;DHT22;6139;51.274;7.128;2022-07-12T01:42:52;15.10;99.90
12152;DHT22;6139;51.274;7.128;2022-07-12T01:43:55;15.10;99.90
12152;DHT22;6139;51.274;7.128;2022-07-12T01:44:57;15.10;99.90
12152;DHT22;6139;51.274;7.128;2022-07-12T01:45:59;15.00;99.90
12152;DHT22;6139;51.274;7.128;2022-07-12T01:47:00;15.00;99.90
12152;DHT22;6139;51.274;7.128;2022-07-12T01:48:03;15.00;99.90
12152;DHT22;6139;51.274;7.128;2022-07-12T01:49:04;15.00;99.90
12152;DHT22;6139;51.274;7.128;2022-07-12T01:50:08;15.10;99.90
12152;DHT22;6139;51.274;7.128;2022-07-12T01:51:09;15.10;99.90
12152;DHT22;6139;51.274;7.128;2022-07-12T01:52:11;15.10;99.90
12152;DHT22;6139;51.274;7.128;2022-07-12T01:53:13;15.10;99.90
12152;DHT22;6139;51.274;7.128;2022-07-12T01:54:17;15.20;99.90
12152;DHT22;6139;51.274;7.128;2022-07-12T01:55:18;15.20;99.90
12152;DHT22;6139;51.274;7.128;2022-07-12T01:56:21;15.10;99.90
12152;DHT22;6139;51.274;7.128;2022-07-12T01:57:22;15.10;99.90
12152;DHT22;6139;51.274;7.128;2022-07-12T01:58:23;15.10;99.90
12152;DHT22;6139;51.274;7.128;2022-07-12T01:59:25;15.00;99.90
12152;DHT22;6139;51.274;7.128;2022-07-12T02:00:27;15.00;99.90
12152;DHT22;6139;51.274;7.128;2022-07-12T02:01:28;14.90;99.90
12152;DHT22;6139;51.274;7.128;2022-07-12T02:02:31;14.90;99.90
12152;DHT22;6139;51.274;7.128;2022-07-12T02:03:34;14.90;99.90
12152;DHT22;6139;51.274;7.128;2022-07-12T02:04:37;14.90;99.90
12152;DHT22;6139;51.274;7.128;2022-07-12T02:05:38;14.80;99.90
12152;DHT22;6139;51.274;7.128;2022-07-12T02:06:40;14.80;99.90
12152;DHT22;6139;51.274;7.128;2022-07-12T02:07:42;14.80;99.90
12152;DHT22;6139;51.274;7.128;2022-07-12T02:08:44;14.80;99.90
12152;DHT22;6139;51.274;7.128;2022-07-12T02:09:47;14.90;99.90
12152;DHT22;6139;51.274;7.128;2022-07-12T02:10:49;14.90;99.90
12152;DHT22;6139;51.274;7.128;2022-07-12T02:11:50;14.90;99.90
12152;DHT22;6139;51.274;7.128;2022-07-12T02:12:52;14.90;99.90
12152;DHT22;6139;51.274;7.128;2022-07-12T02:13:53;14.90;99.90
12152;DHT22;6139;51.274;7.128;2022-07-12T02:14:55;14.90;99.90
12152;DHT22;6139;51.274;7.128;2022-07-12T02:15:55;14.90;99.90
12152;DHT22;6139;51.274;7.128;2022-07-12T02:16:57;14.90;99.90
12152;DHT22;6139;51.274;7.128;2022-07-12T02:17:58;14.90;99.90
12152;DHT22;6139;51.274;7.128;2022-07-12T02:19:01;14.80;99.90
12152;DHT22;6139;51.274;7.128;2022-07-12T02:20:03;14.80;99.90
12152;DHT22;6139;51.274;7.128;2022-07-12T02:21:05;14.80;99.90
12152;DHT22;6139;51.274;7.128;2022-07-12T02:22:06;14.80;99.90
12152;DHT22;6139;51.274;7.128;2022-07-12T02:23:08;14.80;99.90
12152;DHT22;6139;51.274;7.128;2022-07-12T02:24:09;14.80;99.90
12152;DHT22;6139;51.274;7.128;2022-07-12T02:25:12;14.80;99.90
12152;DHT22;6139;51.274;7.128;2022-07-12T02:26:13;14.80;99.90
12152;DHT22;6139;51.274;7.128;2022-07-12T02:27:15;14.80;99.90
12152;DHT22;6139;51.274;7.128;2022-07-12T02:28:17;14.80;99.90
12152;DHT22;6139;51.274;7.128;2022-07-12T02:29:19;14.80;99.90
12152;DHT22;6139;51.274;7.128;2022-07-12T02:30:20;14.80;99.90
12152;DHT22;6139;51.274;7.128;2022-07-12T02:31:22;14.80;99.90
12152;DHT22;6139;51.274;7.128;2022-07-12T02:32:23;14.80;99.90
12152;DHT22;6139;51.274;7.128;2022-07-12T02:33:25;14.80;99.90
12152;DHT22;6139;51.274;7.128;2022-07-12T02:34:26;14.80;99.90
12152;DHT22;6139;51.274;7.128;2022-07-12T02:35:28;14.70;99.90
12152;DHT22;6139;51.274;7.128;2022-07-12T02:36:29;14.80;99.90
12152;DHT22;6139;51.274;7.128;2022-07-12T02:37:31;14.80;99.90
12152;DHT22;6139;51.274;7.128;2022-07-12T02:38:32;14.80;99.90
12152;DHT22;6139;51.274;7.128;2022-07-12T02:39:34;14.80;99.90
12152;DHT22;6139;51.274;7.128;2022-07-12T02:40:36;14.70;99.90
12152;DHT22;6139;51.274;7.128;2022-07-12T02:41:56;14.70;99.90
12152;DHT22;6139;51.274;7.128;2022-07-12T02:42:57;14.70;99.90
12152;DHT22;6139;51.274;7.128;2022-07-12T02:44:00;14.70;99.90
12152;DHT22;6139;51.274;7.128;2022-07-12T02:45:01;14.70;99.90
12152;DHT22;6139;51.274;7.128;2022-07-12T02:46:04;14.60;99.90
12152;DHT22;6139;51.274;7.128;2022-07-12T02:47:05;14.60;99.90
12152;DHT22;6139;51.274;7.128;2022-07-12T02:48:08;14.60;99.90
12152;DHT22;6139;51.274;7.128;2022-07-12T02:49:11;14.60;99.90
12152;DHT22;6139;51.274;7.128;2022-07-12T02:50:13;14.60;99.90
12152;DHT22;6139;51.274;7.128;2022-07-12T02:51:14;14.60;99.90
12152;DHT22;6139;51.274;7.128;2022-07-12T02:52:16;14.60;99.90
12152;DHT22;6139;51.274;7.128;2022-07-12T02:53:17;14.60;99.90
12152;DHT22;6139;51.274;7.128;2022-07-12T02:54:18;14.60;99.90
12152;DHT22;6139;51.274;7.128;2022-07-12T02:55:19;14.60;99.90
12152;DHT22;6139;51.274;7.128;2022-07-12T02:56:23;14.60;99.90
12152;DHT22;6139;51.274;7.128;2022-07-12T02:57:24;14.60;99.90
12152;DHT22;6139;51.274;7.128;2022-07-12T02:58:26;14.60;99.90
12152;DHT22;6139;51.274;7.128;2022-07-12T02:59:27;14.60;99.90
12152;DHT22;6139;51.274;7.128;2022-07-12T03:00:29;14.60;99.90
12152;DHT22;6139;51.274;7.128;2022-07-12T03:01:30;14.50;99.90
12152;DHT22;6139;51.274;7.128;2022-07-12T03:02:32;14.50;99.90
12152;DHT22;6139;51.274;7.128;2022-07-12T03:03:33;14.50;99.90
12152;DHT22;6139;51.274;7.128;2022-07-12T03:04:35;14.50;99.90
12152;DHT22;6139;51.274;7.128;2022-07-12T03:05:36;14.50;99.90
12152;DHT22;6139;51.274;7.128;2022-07-12T03:06:38;14.50;99.90
12152;DHT22;6139;51.274;7.128;2022-07-12T03:07:40;14.50;99.90
12152;DHT22;6139;51.274;7.128;2022-07-12T03:08:42;14.50;99.90
12152;DHT22;6139;51.274;7.128;2022-07-12T03:09:44;14.60;99.90
12152;DHT22;6139;51.274;7.128;2022-07-12T03:10:45;14.60;99.90
12152;DHT22;6139;51.274;7.128;2022-07-12T03:11:49;14.60;99.90
12152;DHT22;6139;51.274;7.128;2022-07-12T03:12:50;14.60;99.90
12152;DHT22;6139;51.274;7.128;2022-07-12T03:13:51;14.60;99.90
12152;DHT22;6139;51.274;7.128;2022-07-12T03:14:54;14.60;99.90
12152;DHT22;6139;51.274;7.128;2022-07-12T03:15:55;14.60;99.90
12152;DHT22;6139;51.274;7.128;2022-07-12T03:16:57;14.60;99.90
12152;DHT22;6139;51.274;7.128;2022-07-12T03:17:59;14.60;99.90
12152;DHT22;6139;51.274;7.128;2022-07-12T03:19:01;14.60;99.90
12152;DHT22;6139;51.274;7.128;2022-07-12T03:20:04;14.60;99.90
12152;DHT22;6139;51.274;7.128;2022-07-12T03:21:07;14.60;99.90
12152;DHT22;6139;51.274;7.128;2022-07-12T03:22:08;14.60;99.90
12152;DHT22;6139;51.274;7.128;2022-07-12T03:23:09;14.50;99.90
12152;DHT22;6139;51.274;7.128;2022-07-12T03:24:11;14.50;99.90
12152;DHT22;6139;51.274;7.128;2022-07-12T03:25:13;14.50;99.90
12152;DHT22;6139;51.274;7.128;2022-07-12T03:26:15;14.50;99.90
12152;DHT22;6139;51.274;7.128;2022-07-12T03:27:18;14.40;99.90
12152;DHT22;6139;51.274;7.128;2022-07-12T03:28:20;14.40;99.90
12152;DHT22;6139;51.274;7.128;2022-07-12T03:29:21;14.40;99.90
12152;DHT22;6139;51.274;7.128;2022-07-12T03:30:23;14.40;99.90
12152;DHT22;6139;51.274;7.128;2022-07-12T03:31:24;14.40;99.90
12152;DHT22;6139;51.274;7.128;2022-07-12T03:32:26;14.40;99.90
12152;DHT22;6139;51.274;7.128;2022-07-12T03:33:27;14.40;99.90
12152;DHT22;6139;51.274;7.128;2022-07-12T03:34:29;14.40;99.90
12152;DHT22;6139;51.274;7.128;2022-07-12T03:35:30;14.40;99.90
12152;DHT22;6139;51.274;7.128;2022-07-12T03:36:32;14.40;99.90
12152;DHT22;6139;51.274;7.128;2022-07-12T03:37:42;14.40;99.90
12152;DHT22;6139;51.274;7.128;2022-07-12T03:38:43;14.50;99.90
12152;DHT22;6139;51.274;7.128;2022-07-12T03:39:45;14.40;99.90
12152;DHT22;6139;51.274;7.128;2022-07-12T03:40:46;14.40;99.90
12152;DHT22;6139;51.274;7.128;2022-07-12T03:41:49;14.30;99.90
12152;DHT22;6139;51.274;7.128;2022-07-12T03:42:52;14.30;99.90
12152;DHT22;6139;51.274;7.128;2022-07-12T03:43:54;14.20;99.90
12152;DHT22;6139;51.274;7.128;2022-07-12T03:44:55;14.20;99.90
12152;DHT22;6139;51.274;7.128;2022-07-12T03:45:57;14.20;99.90
12152;DHT22;6139;51.274;7.128;2022-07-12T03:46:58;14.20;99.90
12152;DHT22;6139;51.274;7.128;2022-07-12T03:48:00;14.20;99.90
12152;DHT22;6139;51.274;7.128;2022-07-12T03:49:01;14.20;99.90
12152;DHT22;6139;51.274;7.128;2022-07-12T03:50:03;14.20;99.90
12152;DHT22;6139;51.274;7.128;2022-07-12T03:51:05;14.30;99.90
12152;DHT22;6139;51.274;7.128;2022-07-12T03:52:07;14.30;99.90
12152;DHT22;6139;51.274;7.128;2022-07-12T03:53:08;14.30;99.90
12152;DHT22;6139;51.274;7.128;2022-07-12T03:54:10;14.30;99.90
12152;DHT22;6139;51.274;7.128;2022-07-12T03:55:12;14.30;99.90
12152;DHT22;6139;51.274;7.128;2022-07-12T03:56:14;14.40;99.90
12152;DHT22;6139;51.274;7.128;2022-07-12T03:57:35;14.40;99.90
12152;DHT22;6139;51.274;7.128;2022-07-12T03:58:38;14.40;99.90
12152;DHT22;6139;51.274;7.128;2022-07-12T03:59:40;14.30;99.90
12152;DHT22;6139;51.274;7.128;2022-07-12T04:00:42;14.30;99.90
12152;DHT22;6139;51.274;7.128;2022-07-12T04:01:44;14.30;99.90
12152;DHT22;6139;51.274;7.128;2022-07-12T04:02:45;14.30;99.90
12152;DHT22;6139;51.274;7.128;2022-07-12T04:03:47;14.30;99.90
12152;DHT22;6139;51.274;7.128;2022-07-12T04:04:48;14.30;99.90
12152;DHT22;6139;51.274;7.128;2022-07-12T04:05:50;14.30;99.90
12152;DHT22;6139;51.274;7.128;2022-07-12T04:06:52;14.30;99.90
12152;DHT22;6139;51.274;7.128;2022-07-12T04:07:54;14.30;99.90
12152;DHT22;6139;51.274;7.128;2022-07-12T04:08:56;14.30;99.90
12152;DHT22;6139;51.274;7.128;2022-07-12T04:09:57;14.30;99.90
12152;DHT22;6139;51.274;7.128;2022-07-12T04:10:59;14.40;99.90
12152;DHT22;6139;51.274;7.128;2022-07-12T04:12:00;14.40;99.90
12152;DHT22;6139;51.274;7.128;2022-07-12T04:13:02;14.40;99.90
12152;DHT22;6139;51.274;7.128;2022-07-12T04:14:06;14.40;99.90
12152;DHT22;6139;51.274;7.128;2022-07-12T04:15:08;14.40;99.90
12152;DHT22;6139;51.274;7.128;2022-07-12T04:16:10;14.40;99.90
12152;DHT22;6139;51.274;7.128;2022-07-12T04:17:11;14.40;99.90
12152;DHT22;6139;51.274;7.128;2022-07-12T04:18:13;14.40;99.90
12152;DHT22;6139;51.274;7.128;2022-07-12T04:19:14;14.40;99.90
12152;DHT22;6139;51.274;7.128;2022-07-12T04:20:16;14.40;99.90
12152;DHT22;6139;51.274;7.128;2022-07-12T04:21:18;14.40;99.90
12152;DHT22;6139;51.274;7.128;2022-07-12T04:22:19;14.40;99.90
12152;DHT22;6139;51.274;7.128;2022-07-12T04:23:22;14.40;99.90
12152;DHT22;6139;51.274;7.128;2022-07-12T04:24:23;14.50;99.90
12152;DHT22;6139;51.274;7.128;2022-07-12T04:25:25;14.50;99.90
12152;DHT22;6139;51.274;7.128;2022-07-12T04:26:27;14.50;99.90
12152;DHT22;6139;51.274;7.128;2022-07-12T04:27:28;14.50;99.90
12152;DHT22;6139;51.274;7.128;2022-07-12T04:28:30;14.50;99.90
12152;DHT22;6139;51.274;7.128;2022-07-12T04:29:32;14.60;99.90
12152;DHT22;6139;51.274;7.128;2022-07-12T04:30:34;14.60;99.90
12152;DHT22;6139;51.274;7.128;2022-07-12T04:31:35;14.60;99.90
12152;DHT22;6139;51.274;7.128;2022-07-12T04:32:37;14.60;99.90
12152;DHT22;6139;51.274;7.128;2022-07-12T04:33:38;14.60;99.90
12152;DHT22;6139;51.274;7.128;2022-07-12T04:34:40;14.60;99.90
12152;DHT22;6139;51.274;7.128;2022-07-12T04:35:41;14.60;99.90
12152;DHT22;6139;51.274;7.128;2022-07-12T04:36:43;14.60;99.90
12152;DHT22;6139;51.274;7.128;2022-07-12T04:37:44;14.50;99.90
12152;DHT22;6139;51.274;7.128;2022-07-12T04:38:46;14.50;99.90
12152;DHT22;6139;51.274;7.128;2022-07-12T04:39:47;14.60;99.90
12152;DHT22;6139;51.274;7.128;2022-07-12T04:40:49;14.60;99.90
12152;DHT22;6139;51.274;7.128;2022-07-12T04:41:50;14.50;99.90
12152;DHT22;6139;51.274;7.128;2022-07-12T04:42:52;14.50;99.90
12152;DHT22;6139;51.274;7.128;2022-07-12T04:43:54;14.50;99.90
12152;DHT22;6139;51.274;7.128;2022-07-12T04:44:56;14.50;99.90
12152;DHT22;6139;51.274;7.128;2022-07-12T04:46:05;14.50;99.90
12152;DHT22;6139;51.274;7.128;2022-07-12T04:47:06;14.50;99.90
12152;DHT22;6139;51.274;7.128;2022-07-12T04:48:08;14.50;99.90
12152;DHT22;6139;51.274;7.128;2022-07-12T04:49:09;14.50;99.90
12152;DHT22;6139;51.274;7.128;2022-07-12T04:50:11;14.50;99.90
12152;DHT22;6139;51.274;7.128;2022-07-12T04:51:12;14.50;99.90
12152;DHT22;6139;51.274;7.128;2022-07-12T04:52:16;14.50;99.90
12152;DHT22;6139;51.274;7.128;2022-07-12T04:53:18;14.60;99.90
12152;DHT22;6139;51.274;7.128;2022-07-12T04:54:19;14.60;99.90
12152;DHT22;6139;51.274;7.128;2022-07-12T04:55:20;14.60;99.90
12152;DHT22;6139;51.274;7.128;2022-07-12T04:56:21;14.60;99.90
12152;DHT22;6139;51.274;7.128;2022-07-12T04:57:23;14.60;99.90
12152;DHT22;6139;51.274;7.128;2022-07-12T04:58:24;14.70;99.90
12152;DHT22;6139;51.274;7.128;2022-07-12T04:59:26;14.70;99.90
12152;DHT22;6139;51.274;7.128;2022-07-12T05:00:29;14.70;99.90
12152;DHT22;6139;51.274;7.128;2022-07-12T05:01:31;14.80;99.90
12152;DHT22;6139;51.274;7.128;2022-07-12T05:02:33;14.80;99.90
12152;DHT22;6139;51.274;7.128;2022-07-12T05:03:35;14.90;99.90
12152;DHT22;6139;51.274;7.128;2022-07-12T05:04:36;14.90;99.90
12152;DHT22;6139;51.274;7.128;2022-07-12T05:05:37;14.90;99.90
12152;DHT22;6139;51.274;7.128;2022-07-12T05:06:38;15.00;99.90
12152;DHT22;6139;51.274;7.128;2022-07-12T05:07:40;15.00;99.90
12152;DHT22;6139;51.274;7.128;2022-07-12T05:08:42;15.10;99.90
12152;DHT22;6139;51.274;7.128;2022-07-12T05:09:44;15.10;99.90
12152;DHT22;6139;51.274;7.128;2022-07-12T05:10:45;15.10;99.90
12152;DHT22;6139;51.274;7.128;2022-07-12T05:11:46;15.20;99.90
12152;DHT22;6139;51.274;7.128;2022-07-12T05:12:47;15.20;99.90
12152;DHT22;6139;51.274;7.128;2022-07-12T05:13:49;15.20;99.90
12152;DHT22;6139;51.274;7.128;2022-07-12T05:14:50;15.20;99.90
12152;DHT22;6139;51.274;7.128;2022-07-12T05:15:54;15.30;99.90
12152;DHT22;6139;51.274;7.128;2022-07-12T05:16:54;15.30;99.90
12152;DHT22;6139;51.274;7.128;2022-07-12T05:17:56;15.30;99.90
12152;DHT22;6139;51.274;7.128;2022-07-12T05:18:57;15.30;99.90
12152;DHT22;6139;51.274;7.128;2022-07-12T05:20:01;15.40;99.90
12152;DHT22;6139;51.274;7.128;2022-07-12T05:21:02;15.40;99.90
12152;DHT22;6139;51.274;7.128;2022-07-12T05:22:04;15.50;99.90
12152;DHT22;6139;51.274;7.128;2022-07-12T05:23:05;15.50;99.90
12152;DHT22;6139;51.274;7.128;2022-07-12T05:24:08;15.50;99.90
12152;DHT22;6139;51.274;7.128;2022-07-12T05:25:09;15.50;99.90
12152;DHT22;6139;51.274;7.128;2022-07-12T05:26:11;15.60;99.90
12152;DHT22;6139;51.274;7.128;2022-07-12T05:27:12;15.60;99.90
12152;DHT22;6139;51.274;7.128;2022-07-12T05:28:14;15.70;99.90
12152;DHT22;6139;51.274;7.128;2022-07-12T05:29:15;15.70;99.90
12152;DHT22;6139;51.274;7.128;2022-07-12T05:30:17;15.70;99.90
12152;DHT22;6139;51.274;7.128;2022-07-12T05:31:20;15.70;99.90
12152;DHT22;6139;51.274;7.128;2022-07-12T05:32:22;15.70;99.90
12152;DHT22;6139;51.274;7.128;2022-07-12T05:33:24;15.80;99.90
12152;DHT22;6139;51.274;7.128;2022-07-12T05:34:26;15.80;99.90
12152;DHT22;6139;51.274;7.128;2022-07-12T05:35:27;15.80;99.90
12152;DHT22;6139;51.274;7.128;2022-07-12T05:36:29;15.80;99.90
12152;DHT22;6139;51.274;7.128;2022-07-12T05:37:31;15.90;99.90
12152;DHT22;6139;51.274;7.128;2022-07-12T05:38:32;15.80;99.90
12152;DHT22;6139;51.274;7.128;2022-07-12T05:39:34;15.90;99.90
12152;DHT22;6139;51.274;7.128;2022-07-12T05:40:35;15.90;99.90
12152;DHT22;6139;51.274;7.128;2022-07-12T05:41:37;15.90;99.90
12152;DHT22;6139;51.274;7.128;2022-07-12T05:42:38;16.00;99.90
12152;DHT22;6139;51.274;7.128;2022-07-12T05:43:40;16.00;99.90
12152;DHT22;6139;51.274;7.128;2022-07-12T05:44:41;16.00;99.90
12152;DHT22;6139;51.274;7.128;2022-07-12T05:45:43;16.10;99.90
12152;DHT22;6139;51.274;7.128;2022-07-12T05:46:45;16.10;99.90
12152;DHT22;6139;51.274;7.128;2022-07-12T05:47:47;16.10;99.90
12152;DHT22;6139;51.274;7.128;2022-07-12T05:48:48;16.10;99.90
12152;DHT22;6139;51.274;7.128;2022-07-12T05:49:50;16.20;99.90
12152;DHT22;6139;51.274;7.128;2022-07-12T05:50:51;16.20;99.90
12152;DHT22;6139;51.274;7.128;2022-07-12T05:51:53;16.20;99.90
12152;DHT22;6139;51.274;7.128;2022-07-12T05:53:12;16.30;99.90
12152;DHT22;6139;51.274;7.128;2022-07-12T05:54:22;16.30;99.90
12152;DHT22;6139;51.274;7.128;2022-07-12T05:55:23;16.40;99.90
12152;DHT22;6139;51.274;7.128;2022-07-12T05:56:26;16.40;99.90
12152;DHT22;6139;51.274;7.128;2022-07-12T05:57:28;16.50;99.90
12152;DHT22;6139;51.274;7.128;2022-07-12T05:58:29;16.50;99.90
12152;DHT22;6139;51.274;7.128;2022-07-12T05:59:30;16.60;99.90
12152;DHT22;6139;51.274;7.128;2022-07-12T06:00:32;16.60;99.90
12152;DHT22;6139;51.274;7.128;2022-07-12T06:01:34;16.60;99.90
12152;DHT22;6139;51.274;7.128;2022-07-12T06:02:36;16.70;99.90
12152;DHT22;6139;51.274;7.128;2022-07-12T06:03:38;16.70;99.90
12152;DHT22;6139;51.274;7.128;2022-07-12T06:04:39;16.70;99.90
12152;DHT22;6139;51.274;7.128;2022-07-12T06:05:41;16.80;99.90
12152;DHT22;6139;51.274;7.128;2022-07-12T06:06:43;16.80;99.90
12152;DHT22;6139;51.274;7.128;2022-07-12T06:07:45;16.90;99.90
12152;DHT22;6139;51.274;7.128;2022-07-12T06:08:47;16.90;99.90
12152;DHT22;6139;51.274;7.128;2022-07-12T06:09:48;17.00;99.90
12152;DHT22;6139;51.274;7.128;2022-07-12T06:10:50;17.00;99.90
12152;DHT22;6139;51.274;7.128;2022-07-12T06:11:51;17.10;99.90
12152;DHT22;6139;51.274;7.128;2022-07-12T06:12:53;17.20;99.90
12152;DHT22;6139;51.274;7.128;2022-07-12T06:13:55;17.30;99.90
12152;DHT22;6139;51.274;7.128;2022-07-12T06:14:56;17.40;99.90
12152;DHT22;6139;51.274;7.128;2022-07-12T06:15:58;17.50;99.90
12152;DHT22;6139;51.274;7.128;2022-07-12T06:17:00;17.60;99.90
12152;DHT22;6139;51.274;7.128;2022-07-12T06:18:03;17.70;99.90
12152;DHT22;6139;51.274;7.128;2022-07-12T06:19:04;17.70;99.90
12152;DHT22;6139;51.274;7.128;2022-07-12T06:20:07;17.70;99.90
12152;DHT22;6139;51.274;7.128;2022-07-12T06:21:08;17.70;99.90
12152;DHT22;6139;51.274;7.128;2022-07-12T06:22:10;17.70;99.90
12152;DHT22;6139;51.274;7.128;2022-07-12T06:23:11;17.70;99.90
12152;DHT22;6139;51.274;7.128;2022-07-12T06:24:13;17.70;99.90
12152;DHT22;6139;51.274;7.128;2022-07-12T06:25:14;17.80;99.90
12152;DHT22;6139;51.274;7.128;2022-07-12T06:26:16;17.80;99.90
12152;DHT22;6139;51.274;7.128;2022-07-12T06:27:17;17.90;99.90
12152;DHT22;6139;51.274;7.128;2022-07-12T06:28:19;17.90;99.90
12152;DHT22;6139;51.274;7.128;2022-07-12T06:29:20;17.90;99.90
12152;DHT22;6139;51.274;7.128;2022-07-12T06:30:22;18.00;99.90
12152;DHT22;6139;51.274;7.128;2022-07-12T06:31:24;18.10;99.90
12152;DHT22;6139;51.274;7.128;2022-07-12T06:32:25;18.20;99.90
12152;DHT22;6139;51.274;7.128;2022-07-12T06:33:29;18.30;99.90
12152;DHT22;6139;51.274;7.128;2022-07-12T06:34:30;18.30;99.90
12152;DHT22;6139;51.274;7.128;2022-07-12T06:35:32;18.40;99.90
12152;DHT22;6139;51.274;7.128;2022-07-12T06:36:34;18.40;99.90
12152;DHT22;6139;51.274;7.128;2022-07-12T06:37:36;18.50;99.90